Terminal Aerodrome Forecast
Issued by NWS Charleston, WV

Current Version | Previous Version | Graphics & Text | Print | Product List | Glossary On
Versions: 1 2 3 4 5 6 7 8 9 10 11 12 13 14 15 16 17 18 19 20 21 22 23 24 25 26 27
000
FTUS41 KRLX 192300 RRA
TAFPKB
TAF
KPKB 192342Z 2000/2024 21008KT P6SM BKN050
     FM200300 24008KT 6SM -SHSN OVC025
     FM200700 24008KT P6SM OVC025
     FM201000 26007KT P6SM BKN015
     FM201900 25008G14KT P6SM BKN025
     FM202100 26008G14KT P6SM BKN035
     FM202300 26007KT P6SM BKN025=

USA.gov is the U.S. government's official web portal to all federal, state and local government web resources and services.